CST,Max TemperatureF,Mean TemperatureF,Min TemperatureF,Max Dew PointF,MeanDew PointF,Min DewpointF,Max Humidity, Mean Humidity, Min Humidity, Max Sea Level PressureIn, Mean Sea Level PressureIn, Min Sea Level PressureIn, Max VisibilityMiles, Mean VisibilityMiles, Min VisibilityMiles, Max Wind SpeedMPH, Mean Wind SpeedMPH, Max Gust SpeedMPH,PrecipitationIn, CloudCover, Events, WindDirDegrees
2012-11-1,52,42,32,30,23,18,73,50,36,29.92,29.88,29.83,10,10,9,14,7,18,0.00,5,,309
2012-11-2,48,38,28,31,28,25,89,68,41,30.16,30.07,29.93,10,10,9,13,7,18,0.00,0,,3
2012-11-3,46,37,28,34,31,27,93,78,63,30.23,30.19,30.14,10,10,9,12,5,15,T,6,Rain,28
2012-11-4,48,38,27,31,27,23,92,72,42,30.26,30.22,30.19,10,9,7,15,5,17,0.00,2,,351
2012-11-5,43,33,22,34,28,21,96,78,62,30.21,30.19,30.13,10,9,5,9,4,12,0.00,5,,70
2012-11-6,40,33,25,38,34,24,100,91,73,30.11,29.95,29.88,10,4,2,13,5,15,0.08,7,Rain,165
2012-11-7,45,42,39,40,39,37,100,90,80,30.17,30.04,29.88,5,3,2,7,4,9,T,8,Rain,4
2012-11-8,46,40,34,40,36,33,100,87,65,30.22,30.16,30.10,10,6,2,14,6,22,0.00,6,,201
2012-11-9,55,44,33,46,39,32,100,82,64,30.11,30.04,29.98,10,6,2,10,4,15,0.00,4,,155
2012-11-10,64,57,50,56,50,45,94,78,60,29.99,29.92,29.86,10,9,2,25,12,33,0.20,4,Rain-Thunderstorm,171
2012-11-11,68,52,36,55,48,35,100,83,60,29.96,29.87,29.72,10,8,3,39,19,52,0.38,6,Rain,213
2012-11-12,36,32,27,32,23,19,89,72,59,30.37,30.17,29.95,10,9,2,24,16,32,T,6,Snow,266
2012-11-13,39,30,20,24,20,16,88,72,52,30.52,30.47,30.37,10,10,10,10,5,15,0.00,0,,240
2012-11-14,45,35,24,27,25,22,85,71,48,30.53,30.47,30.40,10,10,9,13,6,17,0.00,1,,169
2012-11-15,46,35,24,32,27,24,92,79,51,30.41,30.37,30.33,10,7,3,9,4,13,0.00,0,,176
2012-11-16,53,39,24,36,30,22,100,79,44,30.49,30.45,30.38,10,7,0,9,2,12,0.00,0,Fog,167
2012-11-17,53,38,22,33,28,23,100,79,43,30.56,30.50,30.46,9,5,1,12,3,16,0.00,0,Fog,158
2012-11-18,55,40,24,35,31,23,96,72,45,30.45,30.40,30.32,10,8,3,10,4,14,0.00,0,,160
2012-11-19,59,48,37,42,37,32,83,68,49,30.31,30.21,30.10,10,9,7,16,7,21,T,3,Rain,173
2012-11-20,57,46,34,45,41,34,100,87,64,30.19,30.12,30.07,8,4,0,13,2,16,0.00,6,Fog,291
2012-11-21,49,41,32,45,39,32,100,97,86,30.24,30.17,30.08,4,2,0,12,6,15,T,3,Fog,197
2012-11-22,63,52,40,51,44,34,100,83,53,30.09,29.94,29.79,10,5,2,28,14,37,0.25,2,Rain,191
2012-11-23,40,34,27,32,21,16,79,66,56,30.23,30.06,29.90,10,10,10,32,18,43,T,7,,291
2012-11-24,31,28,24,21,18,16,77,67,60,30.27,30.18,29.99,10,10,10,17,8,22,0.00,6,,268
2012-11-25,43,34,24,25,23,21,88,68,47,30.08,29.94,29.84,10,10,10,15,7,18,0.00,2,,273
2012-11-26,35,27,18,23,17,9,75,62,50,30.40,30.26,30.09,10,10,10,14,7,17,0.00,2,,343
2012-11-27,33,23,13,16,11,8,77,59,44,30.44,30.35,30.27,10,10,10,13,6,16,0.00,2,,258
2012-11-28,43,32,20,24,20,15,78,63,43,30.39,30.33,30.27,10,10,10,13,6,18,0.00,1,,230
2012-11-29,50,37,24,34,29,22,91,70,52,30.27,30.18,30.09,10,9,6,13,7,15,0.00,2,,172
2012-11-30,50,41,31,36,33,29,100,77,54,30.16,30.10,30.06,10,8,2,12,4,14,0.00,2,,68